createdAt,value
2022-12-07T00:01:36.073Z,1.03
2022-12-07T00:04:07.086Z,1.02
2022-12-07T00:06:35.411Z,0.70
2022-12-07T00:09:02.004Z,0.98
2022-12-07T00:11:28.520Z,0.80
2022-12-07T00:13:57.374Z,0.70
2022-12-07T00:16:25.799Z,0.80
2022-12-07T00:18:52.281Z,0.80
2022-12-07T00:21:21.624Z,1.13
2022-12-07T00:23:50.397Z,0.60
2022-12-07T00:26:20.807Z,1.20
2022-12-07T00:28:48.521Z,0.98
2022-12-07T00:31:16.371Z,0.52
2022-12-07T00:33:43.202Z,0.90
2022-12-07T00:36:12.312Z,0.70
2022-12-07T00:38:39.593Z,0.63
2022-12-07T00:41:11.889Z,0.90
2022-12-07T00:43:38.793Z,0.90
2022-12-07T00:46:05.604Z,0.70
2022-12-07T00:48:32.038Z,0.73
2022-12-07T00:50:58.779Z,1.00
2022-12-07T00:53:25.586Z,0.77
2022-12-07T00:55:53.506Z,0.82
2022-12-07T00:58:20.605Z,0.77
2022-12-07T01:00:46.983Z,1.20
2022-12-07T01:03:15.141Z,0.60
2022-12-07T01:05:50.531Z,0.60
2022-12-07T01:08:16.997Z,0.90
2022-12-07T01:10:43.439Z,1.05
2022-12-07T01:13:09.819Z,1.10
2022-12-07T01:15:40.697Z,0.60
2022-12-07T01:18:07.064Z,0.50
2022-12-07T01:20:33.516Z,0.45
2022-12-07T01:22:59.924Z,0.40
2022-12-07T01:25:26.457Z,0.52
2022-12-07T01:27:52.818Z,0.67
2022-12-07T01:30:19.281Z,0.50
2022-12-07T01:32:45.825Z,0.60
2022-12-07T01:35:12.192Z,0.60
2022-12-07T01:37:39.849Z,0.82
2022-12-07T01:40:08.138Z,0.50
2022-12-07T01:42:35.449Z,0.20
2022-12-07T01:45:19.899Z,0.20
2022-12-07T01:47:53.660Z,0.40
2022-12-07T01:50:22.350Z,0.30
2022-12-07T01:52:52.344Z,0.30
2022-12-07T01:55:19.389Z,0.32
2022-12-07T01:57:49.688Z,0.65
2022-12-07T02:00:17.942Z,0.40
2022-12-07T02:02:49.263Z,0.30
2022-12-07T02:05:18.009Z,0.50
2022-12-07T02:07:46.536Z,0.30
2022-12-07T02:10:19.029Z,0.98
2022-12-07T02:12:49.901Z,0.43
2022-12-07T02:15:16.575Z,0.28
2022-12-07T02:18:24.430Z,0.50
2022-12-07T02:21:24.556Z,0.65
2022-12-07T02:24:15.594Z,0.20
2022-12-07T02:27:00.995Z,0.40
2022-12-07T02:29:44.589Z,0.50
2022-12-07T02:32:23.524Z,0.10
2022-12-07T02:34:56.653Z,0.50
2022-12-07T02:37:49.854Z,0.20
2022-12-07T02:40:25.379Z,0.60
2022-12-07T02:43:00.412Z,0.20
2022-12-07T02:45:31.464Z,0.50
2022-12-07T02:48:01.135Z,0.28
2022-12-07T02:50:28.837Z,0.25
2022-12-07T02:52:56.025Z,0.20
2022-12-07T02:55:29.485Z,0.40
2022-12-07T02:58:37.485Z,0.17
2022-12-07T03:01:20.344Z,0.85
2022-12-07T03:03:57.376Z,0.35
2022-12-07T03:06:32.297Z,0.25
2022-12-07T03:09:21.129Z,0.60
2022-12-07T03:12:06.286Z,0.33
2022-12-07T03:14:38.831Z,0.50
2022-12-07T03:17:18.882Z,0.30
2022-12-07T03:19:48.301Z,0.10
2022-12-07T03:22:16.853Z,0.22
2022-12-07T03:24:50.713Z,0.33
2022-12-07T03:27:37.623Z,0.28
2022-12-07T03:30:09.245Z,0.30
2022-12-07T03:32:42.642Z,0.30
2022-12-07T03:35:16.941Z,0.10
2022-12-07T03:37:57.979Z,0.13
2022-12-07T03:40:45.026Z,0.10
2022-12-07T03:43:11.865Z,0.13
2022-12-07T03:45:42.441Z,0.10
2022-12-07T03:48:35.138Z,0.30
2022-12-07T03:51:22.042Z,0.20
2022-12-07T03:53:55.793Z,0.30
2022-12-07T03:56:23.280Z,0.20
2022-12-07T03:58:50.273Z,0.32
2022-12-07T04:01:19.336Z,0.30
2022-12-07T04:03:45.882Z,0.53
2022-12-07T04:06:12.382Z,0.25
2022-12-07T04:08:38.738Z,0.30
2022-12-07T04:11:05.232Z,0.20
2022-12-07T04:13:51.582Z,0.40
2022-12-07T04:16:18.015Z,0.17
2022-12-07T04:18:44.378Z,0.20
2022-12-07T04:21:10.780Z,0.30
2022-12-07T04:23:37.117Z,0.30
2022-12-07T04:26:03.514Z,0.30
2022-12-07T04:28:29.854Z,0.10
2022-12-07T04:30:56.825Z,0.20
2022-12-07T04:33:23.208Z,0.10
2022-12-07T04:35:49.614Z,0.10
2022-12-07T04:38:16.082Z,0.13
2022-12-07T04:40:42.515Z,0.10
2022-12-07T04:43:08.851Z,0.10
2022-12-07T04:45:35.235Z,0.30
2022-12-07T04:48:01.627Z,0.10
2022-12-07T04:50:28.128Z,0.20
2022-12-07T04:52:54.512Z,0.13
2022-12-07T04:55:20.917Z,0.20
2022-12-07T04:57:47.250Z,0.20
2022-12-07T05:00:13.732Z,0.20
2022-12-07T05:02:40.121Z,0.17
2022-12-07T05:05:06.805Z,0.20
2022-12-07T05:07:33.207Z,0.30
2022-12-07T05:09:59.876Z,0.10
2022-12-07T05:12:26.643Z,0.10
2022-12-07T05:14:53.009Z,0.30
2022-12-07T05:17:19.423Z,0.30
2022-12-07T05:19:45.774Z,0.20
2022-12-07T05:22:12.188Z,0.10
2022-12-07T05:24:38.579Z,0.65
2022-12-07T05:27:04.956Z,0.10
2022-12-07T05:29:31.316Z,0.10
2022-12-07T05:31:57.728Z,0.10
2022-12-07T05:34:24.271Z,0.30
2022-12-07T05:36:51.359Z,0.05
2022-12-07T05:39:17.842Z,0.38
2022-12-07T05:42:02.762Z,0.20
2022-12-07T05:44:29.159Z,0.28
2022-12-07T05:46:55.506Z,0.00
2022-12-07T05:49:21.823Z,0.05
2022-12-07T05:51:48.169Z,0.10
2022-12-07T05:54:14.569Z,0.13
2022-12-07T05:56:40.939Z,0.00
2022-12-07T05:59:26.726Z,0.03
2022-12-07T06:02:02.932Z,0.00
2022-12-07T06:04:35.244Z,0.10
2022-12-07T06:07:01.686Z,0.10
2022-12-07T06:09:29.056Z,0.20
2022-12-07T06:12:14.955Z,0.10
2022-12-07T06:14:41.750Z,0.00
2022-12-07T06:17:08.585Z,0.10
2022-12-07T06:19:35.418Z,0.00
2022-12-07T06:22:03.606Z,0.05
2022-12-07T06:24:29.932Z,0.10
2022-12-07T06:26:56.333Z,0.50
2022-12-07T06:29:23.048Z,0.20
2022-12-07T06:31:49.599Z,0.40
2022-12-07T06:34:23.710Z,0.10
2022-12-07T06:36:55.876Z,0.20
2022-12-07T06:39:24.835Z,0.10
2022-12-07T06:41:52.882Z,0.10
2022-12-07T06:44:19.920Z,0.10
2022-12-07T06:46:46.293Z,0.10
2022-12-07T06:49:12.838Z,0.10
2022-12-07T06:51:42.077Z,0.82
2022-12-07T06:54:09.715Z,0.25
2022-12-07T06:56:36.220Z,0.17
2022-12-07T06:59:03.453Z,0.30
2022-12-07T07:01:29.929Z,0.10
2022-12-07T07:03:56.309Z,0.10
2022-12-07T07:06:22.643Z,0.30
2022-12-07T07:08:49.017Z,0.27
2022-12-07T07:11:15.432Z,0.45
2022-12-07T07:13:41.864Z,0.30
2022-12-07T07:16:09.012Z,0.35
2022-12-07T07:18:35.960Z,0.68
2022-12-07T07:21:02.674Z,0.70
2022-12-07T07:23:29.691Z,0.32
2022-12-07T07:25:56.062Z,0.40
2022-12-07T07:28:23.133Z,0.30
2022-12-07T07:30:49.508Z,0.20
2022-12-07T07:33:16.105Z,0.33
2022-12-07T07:35:42.653Z,0.43
2022-12-07T07:38:09.477Z,0.10
2022-12-07T07:40:36.388Z,0.40
2022-12-07T07:43:02.783Z,0.32
2022-12-07T07:45:29.551Z,0.50
2022-12-07T07:47:56.015Z,0.30
2022-12-07T07:50:22.733Z,0.30
2022-12-07T07:52:49.100Z,0.38
2022-12-07T07:55:17.955Z,0.30
2022-12-07T07:57:48.319Z,0.20
2022-12-07T08:00:18.135Z,0.50
2022-12-07T08:02:44.813Z,0.20
2022-12-07T08:05:13.009Z,0.20
2022-12-07T08:07:39.831Z,0.30
2022-12-07T08:10:07.817Z,0.50
2022-12-07T08:12:38.478Z,0.22
2022-12-07T08:15:05.293Z,0.40
2022-12-07T08:17:31.671Z,0.20
2022-12-07T08:19:58.007Z,0.25
2022-12-07T08:22:24.354Z,0.50
2022-12-07T08:24:50.726Z,0.40
2022-12-07T08:27:17.146Z,0.38
2022-12-07T08:29:43.510Z,0.22
2022-12-07T08:32:10.173Z,0.20
2022-12-07T08:34:37.814Z,0.43
2022-12-07T08:37:04.166Z,0.20
2022-12-07T08:39:32.039Z,0.43
2022-12-07T08:41:59.169Z,0.50
2022-12-07T08:44:25.575Z,0.30
2022-12-07T08:46:57.240Z,0.20
2022-12-07T08:49:28.926Z,0.50
2022-12-07T08:51:56.330Z,0.30
2022-12-07T08:54:23.207Z,0.20
2022-12-07T08:56:57.133Z,0.38
2022-12-07T08:59:25.613Z,0.23
2022-12-07T09:01:52.069Z,0.30
2022-12-07T09:04:18.606Z,0.20
2022-12-07T09:06:45.335Z,0.22
2022-12-07T09:09:13.988Z,0.50
2022-12-07T09:11:40.469Z,0.83
2022-12-07T09:14:07.253Z,1.40
2022-12-07T09:16:34.864Z,1.02
2022-12-07T09:19:01.523Z,0.30
2022-12-07T09:21:27.926Z,0.50
2022-12-07T09:23:54.276Z,0.20
2022-12-07T09:26:20.660Z,0.20
2022-12-07T09:28:47.099Z,0.32
2022-12-07T09:31:29.017Z,0.28
2022-12-07T09:34:01.025Z,0.20
2022-12-07T09:36:28.782Z,0.10
2022-12-07T09:38:55.155Z,0.10
2022-12-07T09:41:23.097Z,0.60
2022-12-07T09:43:49.955Z,0.10
2022-12-07T09:46:18.985Z,0.10
2022-12-07T09:48:48.402Z,0.10
2022-12-07T09:51:24.541Z,0.10
2022-12-07T09:53:53.488Z,0.25
2022-12-07T09:56:20.913Z,0.20
2022-12-07T09:58:48.350Z,0.30
2022-12-07T10:01:20.295Z,0.17
2022-12-07T10:04:02.715Z,0.10
2022-12-07T10:06:29.454Z,0.10
2022-12-07T10:08:55.869Z,0.10
2022-12-07T10:11:22.370Z,0.20
2022-12-07T10:13:54.793Z,0.50
2022-12-07T10:16:41.973Z,0.10
2022-12-07T10:19:34.797Z,0.10
2022-12-07T10:22:09.933Z,0.20
2022-12-07T10:24:40.251Z,0.10
2022-12-07T10:27:17.454Z,0.30
2022-12-07T10:29:49.404Z,0.10
2022-12-07T10:32:15.718Z,0.10
2022-12-07T10:34:47.416Z,0.30
2022-12-07T10:37:19.518Z,0.10
2022-12-07T10:39:52.016Z,0.10
2022-12-07T10:42:25.345Z,0.40
2022-12-07T10:45:16.382Z,0.20
2022-12-07T10:47:45.674Z,0.20
2022-12-07T10:50:57.958Z,0.50
2022-12-07T10:53:54.018Z,0.20
2022-12-07T10:56:52.923Z,0.17
2022-12-07T10:59:45.103Z,0.20
2022-12-07T11:02:32.062Z,0.38
2022-12-07T11:05:20.113Z,0.20
2022-12-07T11:07:58.992Z,0.20
2022-12-07T11:11:04.133Z,0.10
2022-12-07T11:13:34.141Z,0.10
2022-12-07T11:16:17.124Z,0.20
2022-12-07T11:19:28.465Z,0.10
2022-12-07T11:22:19.408Z,0.17
2022-12-07T11:25:05.457Z,0.20
2022-12-07T11:27:41.137Z,0.20
2022-12-07T11:30:24.737Z,0.20
2022-12-07T11:32:59.821Z,0.30
2022-12-07T11:35:54.917Z,0.20
2022-12-07T11:38:29.848Z,0.20
2022-12-07T11:41:14.193Z,0.10
2022-12-07T11:43:47.957Z,0.13
2022-12-07T11:46:16.847Z,0.17
2022-12-07T11:49:14.663Z,0.20
2022-12-07T11:51:43.437Z,0.10
2022-12-07T11:54:18.738Z,0.10
2022-12-07T11:56:49.071Z,0.20
2022-12-07T11:59:58.073Z,0.10
2022-12-07T12:02:29.653Z,0.15
2022-12-07T12:05:25.024Z,0.30
2022-12-07T12:15:11.746Z,0.30
2022-12-07T12:18:15.183Z,0.10
2022-12-07T12:20:50.626Z,0.20
2022-12-07T12:23:20.100Z,0.10
2022-12-07T12:25:50.761Z,0.15
2022-12-07T12:28:46.948Z,0.20
2022-12-07T12:31:35.316Z,0.10
2022-12-07T12:34:05.364Z,0.53
2022-12-07T12:36:31.691Z,0.30
2022-12-07T12:39:19.913Z,0.20
2022-12-07T12:41:49.278Z,0.20
2022-12-07T12:44:15.607Z,0.20
2022-12-07T12:47:03.224Z,0.20
2022-12-07T12:49:29.537Z,0.28
2022-12-07T12:52:09.700Z,0.10
2022-12-07T12:54:37.979Z,0.20
2022-12-07T12:57:23.121Z,0.20
2022-12-07T12:59:52.452Z,0.10
2022-12-07T13:02:39.571Z,0.20
2022-12-07T13:05:10.866Z,0.10
2022-12-07T13:07:47.643Z,0.28
2022-12-07T13:10:33.394Z,0.10
2022-12-07T13:13:11.926Z,0.00
2022-12-07T13:15:39.404Z,0.08
2022-12-07T13:18:24.329Z,0.00
2022-12-07T13:21:09.145Z,0.00
2022-12-07T13:23:44.807Z,0.00
2022-12-07T13:26:24.688Z,0.00
2022-12-07T13:29:11.612Z,0.00
2022-12-07T13:31:47.199Z,0.03
2022-12-07T13:34:42.119Z,0.00
2022-12-07T13:37:13.685Z,0.00
2022-12-07T13:39:52.561Z,0.00
2022-12-07T13:42:30.662Z,0.10
2022-12-07T13:44:59.311Z,0.10
2022-12-07T13:47:36.222Z,0.10
2022-12-07T13:50:03.359Z,0.35
2022-12-07T13:52:31.626Z,0.32
2022-12-07T13:55:07.343Z,0.25
2022-12-07T13:57:36.419Z,0.28
2022-12-07T14:00:05.768Z,0.30
2022-12-07T14:02:41.210Z,0.30
2022-12-07T14:05:13.449Z,0.28
2022-12-07T14:08:03.140Z,0.38
2022-12-07T14:10:35.735Z,0.25
2022-12-07T14:13:04.698Z,0.20
2022-12-07T14:15:34.066Z,0.35
2022-12-07T14:18:04.492Z,0.47
2022-12-07T14:20:37.686Z,0.20
2022-12-07T14:23:11.181Z,0.20
2022-12-07T14:25:51.245Z,0.20
2022-12-07T14:28:33.042Z,0.10
2022-12-07T14:31:00.988Z,0.20
2022-12-07T14:33:28.346Z,0.40
2022-12-07T14:35:59.097Z,0.30
2022-12-07T14:38:27.009Z,0.20
2022-12-07T14:40:55.703Z,0.22
2022-12-07T14:43:22.125Z,0.20
2022-12-07T14:45:48.701Z,0.17
2022-12-07T14:53:56.794Z,0.30
2022-12-07T14:56:24.842Z,0.25
2022-12-07T14:58:51.331Z,0.77
2022-12-07T15:01:18.154Z,0.28
2022-12-07T15:03:44.605Z,0.20
2022-12-07T15:06:15.595Z,0.10
2022-12-07T15:08:42.378Z,0.10
2022-12-07T15:11:14.232Z,0.20
2022-12-07T15:13:59.176Z,0.10
2022-12-07T15:16:25.894Z,0.10
2022-12-07T15:19:26.408Z,0.10
2022-12-07T15:21:39.149Z,0.00
2022-12-07T15:24:05.941Z,0.20
2022-12-07T15:26:32.501Z,0.05
2022-12-07T15:28:58.942Z,0.10
2022-12-07T15:31:53.862Z,0.20
2022-12-07T15:34:11.795Z,0.03
2022-12-07T15:36:38.447Z,0.10
2022-12-07T15:39:14.059Z,0.20
2022-12-07T15:41:40.830Z,0.10
2022-12-07T15:44:30.781Z,0.10
2022-12-07T15:46:57.502Z,0.20
2022-12-07T15:49:24.065Z,0.30
2022-12-07T15:51:50.465Z,0.50
2022-12-07T15:54:23.205Z,0.20
2022-12-07T15:56:50.150Z,0.37
2022-12-07T15:59:17.534Z,0.20
2022-12-07T16:01:44.254Z,0.20
2022-12-07T16:04:10.762Z,0.20
2022-12-07T16:06:37.293Z,0.10
2022-12-07T16:09:04.061Z,0.20
2022-12-07T16:11:30.941Z,0.22
2022-12-07T16:13:57.354Z,0.20
2022-12-07T16:16:23.848Z,0.20
2022-12-07T16:18:51.493Z,0.30
2022-12-07T16:21:24.700Z,0.13
2022-12-07T16:23:51.458Z,0.20
2022-12-07T16:26:20.610Z,0.20
2022-12-07T16:28:50.917Z,0.30
2022-12-07T16:31:21.902Z,0.20
2022-12-07T16:33:48.602Z,0.13
2022-12-07T16:36:28.890Z,0.32
2022-12-07T16:39:04.210Z,0.38
2022-12-07T16:41:30.806Z,0.20
2022-12-07T16:43:57.200Z,0.10
2022-12-07T16:46:23.751Z,0.20
2022-12-07T16:48:50.462Z,0.20
2022-12-07T16:51:16.987Z,0.20
2022-12-07T16:53:43.746Z,0.20
2022-12-07T16:56:15.317Z,0.10
2022-12-07T16:58:43.196Z,0.10
2022-12-07T17:01:15.122Z,0.22
2022-12-07T17:03:41.602Z,0.30
2022-12-07T17:06:22.959Z,0.22
2022-12-07T17:08:50.397Z,0.30
2022-12-07T17:11:19.450Z,0.37
2022-12-07T17:14:04.520Z,0.30
2022-12-07T17:16:31.628Z,0.50
2022-12-07T17:18:59.065Z,0.30
2022-12-07T17:21:25.861Z,0.30
2022-12-07T17:23:52.201Z,0.40
2022-12-07T17:26:24.268Z,0.28
2022-12-07T17:28:50.721Z,0.30
2022-12-07T17:31:20.268Z,0.30
2022-12-07T17:33:46.914Z,0.30
2022-12-07T17:36:17.660Z,0.27
2022-12-07T17:38:44.730Z,0.50
2022-12-07T17:41:12.063Z,0.43
2022-12-07T17:43:39.403Z,0.50
2022-12-07T17:46:10.098Z,1.00
2022-12-07T17:48:36.860Z,0.60
2022-12-07T17:51:32.973Z,0.30
2022-12-07T17:54:00.541Z,0.20
2022-12-07T17:56:28.947Z,0.40
2022-12-07T17:58:55.821Z,0.30
2022-12-07T18:01:24.484Z,0.33
2022-12-07T18:03:51.403Z,0.40
2022-12-07T18:06:17.883Z,0.20
2022-12-07T18:08:44.338Z,0.10
2022-12-07T18:11:11.017Z,0.30
2022-12-07T18:13:38.062Z,0.17
2022-12-07T18:16:06.719Z,0.30
2022-12-07T18:18:33.652Z,0.60
2022-12-07T18:21:04.377Z,0.32
2022-12-07T18:23:31.492Z,0.55
2022-12-07T18:25:58.095Z,0.60
2022-12-07T18:28:24.466Z,0.50
2022-12-07T18:31:14.431Z,0.77
2022-12-07T18:33:37.690Z,0.98
2022-12-07T18:36:04.598Z,0.63
2022-12-07T18:38:31.395Z,0.93
2022-12-07T18:40:58.116Z,0.85
2022-12-07T18:43:27.394Z,0.70
2022-12-07T18:45:56.377Z,0.60
2022-12-07T18:48:23.452Z,1.20
2022-12-07T18:51:01.605Z,0.97
2022-12-07T18:53:28.112Z,1.02
2022-12-07T18:56:04.686Z,1.42
2022-12-07T18:58:31.355Z,1.20
2022-12-07T19:00:58.109Z,0.90
2022-12-07T19:03:29.942Z,0.70
2022-12-07T19:05:59.366Z,1.02
2022-12-07T19:08:25.755Z,1.00
2022-12-07T19:10:52.463Z,0.65
2022-12-07T19:13:18.982Z,0.90
2022-12-07T19:15:45.530Z,1.27
2022-12-07T19:18:11.931Z,1.45
2022-12-07T19:20:38.962Z,1.00
2022-12-07T19:23:05.344Z,1.38
2022-12-07T19:25:31.711Z,1.50
2022-12-07T19:27:58.087Z,1.60
2022-12-07T19:30:24.514Z,1.10
2022-12-07T19:32:50.938Z,1.67
2022-12-07T19:35:17.488Z,1.45
2022-12-07T19:37:43.807Z,1.42
2022-12-07T19:40:10.694Z,1.50
2022-12-07T19:42:37.150Z,1.10
2022-12-07T19:45:04.017Z,0.75
2022-12-07T19:47:30.600Z,0.90
2022-12-07T19:49:56.958Z,0.93
2022-12-07T19:52:23.317Z,1.00
2022-12-07T19:54:49.682Z,0.98
2022-12-07T19:57:17.691Z,1.10
2022-12-07T19:59:44.136Z,1.10
2022-12-07T20:02:15.672Z,1.30
2022-12-07T20:04:42.298Z,2.13
2022-12-07T20:07:08.856Z,1.67
2022-12-07T20:09:35.313Z,2.25
2022-12-07T20:12:20.647Z,1.45
2022-12-07T20:14:47.317Z,1.85
2022-12-07T20:17:13.861Z,1.77
2022-12-07T20:19:40.377Z,1.80
2022-12-07T20:22:06.897Z,1.73
2022-12-07T20:24:35.993Z,1.55
2022-12-07T20:27:04.388Z,1.58
2022-12-07T20:29:30.846Z,1.27
2022-12-07T20:31:57.978Z,1.42
2022-12-07T20:34:26.193Z,1.55
2022-12-07T20:36:53.718Z,1.60
2022-12-07T20:39:20.243Z,1.58
2022-12-07T20:42:05.006Z,1.47
2022-12-07T20:44:31.572Z,0.90
2022-12-07T20:46:57.925Z,1.70
2022-12-07T20:49:24.312Z,1.30
2022-12-07T20:51:51.406Z,1.50
2022-12-07T20:54:17.818Z,1.40
2022-12-07T20:56:44.310Z,1.55
2022-12-07T20:59:14.018Z,1.42
2022-12-07T21:01:40.534Z,1.50
2022-12-07T21:04:07.147Z,1.35
2022-12-07T21:06:34.245Z,1.80
2022-12-07T21:09:00.859Z,1.05
2022-12-07T21:11:29.845Z,1.40
2022-12-07T21:13:56.428Z,1.30
2022-12-07T21:16:25.786Z,1.20
2022-12-07T21:18:53.724Z,1.70
2022-12-07T21:21:20.176Z,0.90
2022-12-07T21:23:48.952Z,0.65
2022-12-07T21:26:19.111Z,0.90
2022-12-07T21:28:46.294Z,1.10
2022-12-07T21:31:13.854Z,0.80
2022-12-07T21:33:41.230Z,0.60
2022-12-07T21:36:10.165Z,0.60
2022-12-07T21:38:36.742Z,0.50
2022-12-07T21:41:14.126Z,0.65
2022-12-07T21:43:40.637Z,0.33
2022-12-07T21:46:07.883Z,0.40
2022-12-07T21:48:34.891Z,1.42
2022-12-07T21:51:14.326Z,0.77
2022-12-07T21:53:42.227Z,1.00
2022-12-07T21:56:15.891Z,0.80
2022-12-07T21:58:42.448Z,0.73
2022-12-07T22:01:15.265Z,0.68
2022-12-07T22:03:41.747Z,0.50
2022-12-07T22:06:10.255Z,0.43
2022-12-07T22:08:36.629Z,0.60
2022-12-07T22:11:03.083Z,0.35
2022-12-07T22:13:52.300Z,0.40
2022-12-07T22:16:18.754Z,0.40
2022-12-07T22:18:45.159Z,0.43
2022-12-07T22:21:11.575Z,0.33
2022-12-07T22:23:38.004Z,1.35
2022-12-07T22:26:08.696Z,0.50
2022-12-07T22:28:38.242Z,0.47
2022-12-07T22:31:05.964Z,0.75
2022-12-07T22:33:32.578Z,1.00
2022-12-07T22:35:59.572Z,0.55
2022-12-07T22:38:26.590Z,0.88
2022-12-07T22:40:53.593Z,0.35
2022-12-07T22:43:20.422Z,0.35
2022-12-07T22:45:56.975Z,0.90
2022-12-07T22:48:23.906Z,0.47
2022-12-07T22:50:52.667Z,0.30
2022-12-07T22:53:20.345Z,0.45
2022-12-07T22:55:47.133Z,0.60
2022-12-07T22:58:13.517Z,0.40
2022-12-07T23:00:39.882Z,0.57
2022-12-07T23:03:06.266Z,0.52
2022-12-07T23:05:33.142Z,0.50
2022-12-07T23:07:59.741Z,0.60
2022-12-07T23:10:26.389Z,0.70
2022-12-07T23:13:11.682Z,0.60
2022-12-07T23:15:38.207Z,0.65
2022-12-07T23:18:04.833Z,0.50
2022-12-07T23:20:31.374Z,0.40
2022-12-07T23:22:57.688Z,0.57
2022-12-07T23:25:24.080Z,0.55
2022-12-07T23:27:50.470Z,0.52
2022-12-07T23:30:17.188Z,0.40
2022-12-07T23:32:43.576Z,0.50
2022-12-07T23:35:09.967Z,0.50
2022-12-07T23:37:36.298Z,0.70
2022-12-07T23:40:02.785Z,0.50
2022-12-07T23:42:29.123Z,0.80
2022-12-07T23:44:55.514Z,0.80
2022-12-07T23:47:21.817Z,0.90
2022-12-07T23:49:48.171Z,0.45
2022-12-07T23:52:14.534Z,0.65
2022-12-07T23:54:40.969Z,1.38
2022-12-07T23:57:07.304Z,0.70
2022-12-07T23:59:33.642Z,1.10
